Holdrege, NE

2:14 PM CDT on September 03, 2015 (GMT -0500)
Brewster | | Change Station
CLOSE
Current Station
Airport
Location: Holdrege,
Elevation: 2310 ft
Nearby Weather Stations

Elev 2310 ft 40.45 °N, 99.34 °W | Updated 19 minutes ago

Clear
Clear
90 °F
Feels Like 89 °F
N
15
Wind Variable Wind from SSE
Gusts 21 mph

Today
High -- | Low -- °F
--% Chance of Precip.
Yesterday
High -- | Low -- °F
Precip. -- in
7:06 AM 8:06 PM
Waning Gibbous, 67% visible
Pressure 29.81 in
Visibility 10.0 miles
Clouds Clear
Heat Index 89 °F
Dew Point 58 °F
Humidity 34%
Rainfall 0.00 in
Snow Depth Not available.
UV 9 out of 12
Pollen 11.60 out of 12
Air Quality Not available.
Flu Activity Not available.
METAR KHDE 031855Z AUTO 16013G18KT 10SM CLR 32/15 A2981 RMK AO2 T03230145
Pressure 29.81 in
Visibility 10.0 miles
Clouds Clear
Heat Index 89 °F
Dew Point 58 °F
Humidity 34%
Rainfall 0.00 in
Snow Depth Not available.
UV 9 out of 12
Pollen 11.60 out of 12
Air Quality Not available.
Flu Activity Not available.
METAR KHDE 031855Z AUTO 16013G18KT 10SM CLR 32/15 A2981 RMK AO2 T03230145

10-Day Weather Forecast

×

Almanac

Astronomy

Sep. 03, 2015 Rise Set
Actual Time
Civil Twilight
Nautical Twilight
Astronomical Twilight
Moon
Length of Visible Light
Length of Day
Tomorrow will be .
, % of the Moon is Illuminated

Today's Extremes

State Highs State Lows

Community

WunderPhotos

Upload Photos

1,852,014 photos uploaded!

WunderBlogs® & News

Nearby

Air Quality

  Air Quality AQ Index Pollutant
Not available.

Snow Depth

Station Depth Elevation

Earthquake Activity

City Distance Mag. Time & Date
Minimum magnitude displayed is 2.5.

Coastal Water Temperatures

Place Temperature

Stations

Nearby Weather Stations

Station Location Temp. Windchill Dew Point Humidity Wind Precip. Elev Updated Type